Time;durP1;ratioP1;P1;durP2;ratioP2;P2;SDS_P1;SDS_P2;PMS_P1;PMS_P2;Temp;Humidity;BMP_temperature;BMP_pressure;BME280_temperature;BME280_humidity;BME280_pressure;Samples;Min_cycle;Max_cycle;Signal;HPM_P1;HPM_P2
2024/02/12 00:02:03;;;;;;;15.57;5.15;;;6.80;99.90;;;;;;5001158;28;20061;-82
2024/02/12 00:04:29;;;;;;;19.13;5.55;;;;;;;;;;4999991;28;20011;-81
2024/02/12 00:06:56;;;;;;;16.00;5.00;;;6.60;99.90;;;;;;5000112;28;20046;-81
2024/02/12 00:09:23;;;;;;;15.43;4.90;;;8.10;99.90;;;;;;4999566;28;20023;-81
2024/02/12 00:11:49;;;;;;;15.88;5.60;;;6.50;99.90;;;;;;4999859;28;20033;-83
2024/02/12 00:14:17;;;;;;;23.52;5.53;;;6.60;99.90;;;;;;5000848;28;20030;-82
2024/02/12 00:16:45;;;;;;;23.33;6.32;;;6.60;99.90;;;;;;5000085;28;20030;-82
2024/02/12 00:19:12;;;;;;;19.45;5.68;;;7.50;99.90;;;;;;5001604;28;20057;-81
2024/02/12 00:21:39;;;;;;;28.50;6.85;;;6.70;99.90;;;;;;5000519;28;20474;-82
2024/02/12 00:24:06;;;;;;;20.70;6.45;;;6.60;99.90;;;;;;4999598;28;20474;-81
2024/02/12 00:26:32;;;;;;;15.82;5.97;;;6.70;99.90;;;;;;4999420;28;20029;-82
2024/02/12 00:28:58;;;;;;;24.17;6.22;;;6.70;99.90;;;;;;4999470;28;20394;-82
2024/02/12 00:31:26;;;;;;;14.35;5.50;;;6.80;99.90;;;;;;5001373;28;20029;-81
2024/02/12 00:33:54;;;;;;;17.15;6.40;;;6.80;99.90;;;;;;5000359;28;20022;-82
2024/02/12 00:36:20;;;;;;;20.02;6.57;;;6.80;99.90;;;;;;4999037;28;20430;-82
2024/02/12 00:38:46;;;;;;;17.88;5.82;;;6.80;99.90;;;;;;5000447;28;20026;-81
2024/02/12 00:41:15;;;;;;;17.65;7.72;;;6.80;99.90;;;;;;5001021;28;20113;-82
2024/02/12 00:43:42;;;;;;;17.92;6.95;;;6.80;99.90;;;;;;5000912;28;20065;-82
2024/02/12 00:46:08;;;;;;;21.88;7.00;;;6.90;99.90;;;;;;4999589;28;20022;-81
2024/02/12 00:48:45;;;;;;;25.52;6.55;;;6.90;99.90;;;;;;4998852;28;20117;-82
2024/02/12 00:51:12;;;;;;;18.75;7.35;;;7.30;99.90;;;;;;4999015;28;20111;-82
2024/02/12 00:53:42;;;;;;;23.92;7.20;;;6.90;99.90;;;;;;4999077;28;20030;-82
2024/02/12 00:56:08;;;;;;;19.55;6.68;;;7.00;99.90;;;;;;4999529;28;20038;-81
2024/02/12 00:58:34;;;;;;;18.50;7.13;;;7.00;99.90;;;;;;4998179;28;20026;-81
2024/02/12 01:01:03;;;;;;;21.60;8.77;;;7.90;99.90;;;;;;5000272;28;20015;-81
2024/02/12 01:03:29;;;;;;;18.10;7.35;;;7.10;99.90;;;;;;4999037;28;20045;-82
2024/02/12 01:05:55;;;;;;;18.77;7.50;;;7.20;99.90;;;;;;4999029;28;20014;-81
2024/02/12 01:08:24;;;;;;;23.83;8.73;;;7.20;99.90;;;;;;4998446;28;20034;-81
2024/02/12 01:10:50;;;;;;;24.77;9.27;;;7.20;99.90;;;;;;4999056;28;20023;-81
2024/02/12 01:13:16;;;;;;;21.77;8.23;;;7.30;99.90;;;;;;4999222;28;20395;-81
2024/02/12 01:15:42;;;;;;;22.80;8.60;;;7.20;99.90;;;;;;4998772;28;20026;-81
2024/02/12 01:18:08;;;;;;;21.27;8.80;;;7.30;99.90;;;;;;4998974;28;20030;-82
2024/02/12 01:20:34;;;;;;;27.92;9.48;;;8.80;99.90;;;;;;4998996;28;20378;-81
2024/02/12 01:23:00;;;;;;;26.02;10.43;;;7.70;99.90;;;;;;4998380;28;20034;-81
2024/02/12 01:25:25;;;;;;;24.35;8.75;;;7.30;99.90;;;;;;4998075;28;20037;-82
2024/02/12 01:27:51;;;;;;;25.25;8.80;;;7.30;99.90;;;;;;4997992;28;20548;-82
2024/02/12 01:30:16;;;;;;;25.65;9.13;;;7.30;99.90;;;;;;4997415;28;20042;-81
2024/02/12 01:32:42;;;;;;;20.92;8.27;;;7.30;99.90;;;;;;4998660;28;20508;-82
2024/02/12 01:35:08;;;;;;;23.85;10.35;;;8.30;99.90;;;;;;4999159;28;20116;-81
2024/02/12 01:37:34;;;;;;;23.83;9.50;;;7.30;99.90;;;;;;4998450;28;20025;-82
2024/02/12 01:39:59;;;;;;;25.38;9.70;;;7.40;99.90;;;;;;4999653;28;20033;-81
2024/02/12 01:42:25;;;;;;;23.70;9.32;;;8.10;99.90;;;;;;4998544;28;20034;-82
2024/02/12 01:45:15;;;;;;;22.90;8.63;;;7.30;99.90;;;;;;4998100;28;20026;-81
2024/02/12 01:47:42;;;;;;;30.60;8.48;;;7.30;99.90;;;;;;4998649;28;20038;-81
2024/02/12 01:50:12;;;;;;;28.92;9.98;;;7.60;99.90;;;;;;4998012;28;20482;-81
2024/02/12 01:52:39;;;;;;;28.13;10.18;;;7.20;99.90;;;;;;4998030;28;20054;-80
2024/02/12 01:55:07;;;;;;;22.50;9.73;;;7.30;99.90;;;;;;4999452;28;20046;-82
2024/02/12 01:57:33;;;;;;;28.58;9.80;;;7.30;99.90;;;;;;4997278;28;20037;-82
2024/02/12 02:00:00;;;;;;;27.00;10.70;;;7.40;99.90;;;;;;4999248;28;20483;-82
2024/02/12 02:02:26;;;;;;;26.52;10.90;;;7.20;99.90;;;;;;4997324;28;20037;-80
2024/02/12 02:04:53;;;;;;;26.77;10.23;;;7.20;99.90;;;;;;4998768;28;20030;-83
2024/02/12 02:07:19;;;;;;;34.38;10.60;;;7.10;99.90;;;;;;5000447;28;20019;-80
2024/02/12 02:09:50;;;;;;;25.25;9.20;;;7.10;99.90;;;;;;5002054;28;20034;-80
2024/02/12 02:12:16;;;;;;;27.92;10.32;;;8.10;99.90;;;;;;5002588;28;20023;-83
2024/02/12 02:14:44;;;;;;;21.63;8.45;;;7.10;99.90;;;;;;5003879;28;20033;-81
2024/02/12 02:17:10;;;;;;;22.40;9.18;;;7.10;99.90;;;;;;5003991;28;20022;-83
2024/02/12 02:19:38;;;;;;;23.75;8.57;;;7.00;99.90;;;;;;5002570;28;20026;-81
2024/02/12 02:22:04;;;;;;;21.70;8.65;;;7.00;99.90;;;;;;5001976;28;20068;-82
2024/02/12 02:24:30;;;;;;;22.73;8.48;;;6.90;99.90;;;;;;5001634;28;20100;-82
2024/02/12 02:26:55;;;;;;;24.10;9.50;;;6.90;99.90;;;;;;5003389;28;20417;-81
2024/02/12 02:29:21;;;;;;;22.80;7.93;;;7.20;99.90;;;;;;5002127;28;20032;-81
2024/02/12 02:31:47;;;;;;;24.23;9.23;;;;;;;;;;5002389;28;20033;-81
2024/02/12 02:34:13;;;;;;;22.90;9.23;;;6.80;99.90;;;;;;5002015;28;20034;-81
2024/02/12 02:36:46;;;;;;;26.27;10.02;;;6.80;99.90;;;;;;5003342;28;20033;-81
2024/02/12 02:39:12;;;;;;;18.80;7.80;;;9.80;99.90;;;;;;5002432;28;20029;-82
2024/02/12 02:41:42;;;;;;;21.35;8.75;;;6.70;99.90;;;;;;5001829;28;20098;-82
2024/02/12 02:44:08;;;;;;;25.67;8.50;;;6.70;99.90;;;;;;5002698;28;20033;-81
2024/02/12 02:46:36;;;;;;;21.88;9.27;;;;;;;;;;5000918;28;20022;-80
2024/02/12 02:49:02;;;;;;;24.95;9.10;;;6.70;99.90;;;;;;5001332;28;20042;-81
2024/02/12 02:51:29;;;;;;;24.02;8.77;;;6.70;99.90;;;;;;5001159;28;20030;-82
2024/02/12 02:53:55;;;;;;;25.88;9.05;;;6.70;99.90;;;;;;5001108;28;20050;-82
2024/02/12 02:56:22;;;;;;;22.20;8.13;;;;;;;;;;4999990;28;20389;-81
2024/02/12 02:58:49;;;;;;;19.75;7.75;;;6.70;99.90;;;;;;5002433;28;20410;-80
2024/02/12 03:01:16;;;;;;;28.98;9.88;;;6.70;99.90;;;;;;5001010;28;20026;-81
2024/02/12 03:03:44;;;;;;;16.27;6.43;;;7.90;99.90;;;;;;5000899;28;20022;-78
2024/02/12 03:06:12;;;;;;;25.75;8.82;;;6.70;99.90;;;;;;4996963;28;20096;-78
2024/02/12 03:08:39;;;;;;;27.23;9.45;;;6.70;99.90;;;;;;4998623;28;20398;-77
2024/02/12 03:11:05;;;;;;;21.45;8.35;;;6.70;99.90;;;;;;4998239;28;20022;-77
2024/02/12 03:13:31;;;;;;;26.23;7.90;;;7.60;99.90;;;;;;4998121;28;20045;-77
2024/02/12 03:15:57;;;;;;;26.45;9.20;;;6.70;99.90;;;;;;4996898;28;20109;-79
2024/02/12 03:18:23;;;;;;;23.60;8.98;;;6.60;99.90;;;;;;4998255;28;20022;-77
2024/02/12 03:20:49;;;;;;;26.55;9.73;;;6.50;99.90;;;;;;4996680;28;20021;-77
2024/02/12 03:23:14;;;;;;;26.38;8.30;;;6.50;99.90;;;;;;4997810;28;20486;-77
2024/02/12 03:25:41;;;;;;;23.33;8.15;;;6.50;99.90;;;;;;4998485;28;20500;-77
2024/02/12 03:28:07;;;;;;;18.02;7.97;;;6.40;99.90;;;;;;4998080;28;20117;-78
2024/02/12 03:30:32;;;;;;;20.08;8.25;;;8.50;99.90;;;;;;4996929;28;20057;-77
2024/02/12 03:33:02;;;;;;;28.38;8.90;;;;;;;;;;4996924;28;20445;-77
2024/02/12 03:35:29;;;;;;;27.40;9.38;;;6.30;99.90;;;;;;4998377;28;20049;-77
2024/02/12 03:37:55;;;;;;;25.10;8.60;;;6.20;99.90;;;;;;4996279;28;20019;-77
2024/02/12 03:40:22;;;;;;;25.58;9.57;;;6.20;99.90;;;;;;4998403;28;20081;-77
2024/02/12 03:42:52;;;;;;;28.42;10.05;;;;;;;;;;4997116;28;20023;-77
2024/02/12 03:45:19;;;;;;;24.60;9.88;;;;;;;;;;4996090;28;20490;-78
2024/02/12 03:47:47;;;;;;;28.00;9.93;;;6.20;99.90;;;;;;4997549;28;20060;-78
2024/02/12 04:01:17;;;;;;;32.30;10.48;;;6.20;99.90;;;;;;4998696;28;20122;-77
2024/02/12 04:03:43;;;;;;;29.25;10.57;;;6.20;99.90;;;;;;4997920;28;20054;-78
2024/02/12 04:06:12;;;;;;;28.88;10.43;;;6.20;99.90;;;;;;4998442;28;20024;-81
2024/02/12 04:08:41;;;;;;;;;;;6.20;99.90;;;;;;5001911;28;20061;-81
2024/02/12 04:11:10;;;;;;;25.25;8.93;;;6.20;99.90;;;;;;5000201;28;19906;-81
2024/02/12 04:13:37;;;;;;;;;;;6.20;99.90;;;;;;5001078;28;20026;-82
2024/02/12 04:16:06;;;;;;;28.50;9.70;;;6.10;99.90;;;;;;5000114;28;19910;-79
2024/02/12 04:18:32;;;;;;;27.33;9.35;;;6.10;99.90;;;;;;4999416;28;20023;-81
2024/02/12 04:20:59;;;;;;;27.05;9.32;;;6.00;99.90;;;;;;5000502;28;20044;-80
2024/02/12 04:23:25;;;;;;;23.55;9.43;;;6.00;99.90;;;;;;5001423;28;20026;-81
2024/02/12 04:25:51;;;;;;;29.70;9.45;;;8.50;99.90;;;;;;5000753;28;20030;-80
2024/02/12 04:28:18;;;;;;;25.98;9.02;;;5.90;99.90;;;;;;5002063;28;20545;-81
2024/02/12 04:30:44;;;;;;;28.88;8.85;;;5.90;99.90;;;;;;5000840;28;20018;-80
2024/02/12 04:33:11;;;;;;;29.58;10.40;;;5.90;99.90;;;;;;5000736;28;20023;-81
2024/02/12 04:35:37;;;;;;;31.85;9.73;;;6.00;99.90;;;;;;5002563;28;20019;-81
2024/02/12 04:38:03;;;;;;;28.42;8.45;;;6.00;99.90;;;;;;5000645;28;20105;-81
2024/02/12 04:40:29;;;;;;;29.30;9.20;;;6.00;99.90;;;;;;5000656;28;20414;-81
2024/02/12 04:42:57;;;;;;;30.00;8.68;;;8.10;99.90;;;;;;5003048;28;20521;-81
2024/02/12 04:45:23;;;;;;;30.50;9.30;;;6.00;99.90;;;;;;5001732;28;20086;-82
2024/02/12 04:47:50;;;;;;;27.00;9.98;;;6.00;99.90;;;;;;4999691;28;20030;-82
2024/02/12 04:50:16;;;;;;;29.23;10.55;;;7.50;99.90;;;;;;4999516;28;20089;-81
2024/02/12 04:52:41;;;;;;;26.58;9.00;;;6.10;99.90;;;;;;4999962;28;20050;-82
2024/02/12 04:55:10;;;;;;;24.02;8.65;;;6.10;99.90;;;;;;5000171;28;20479;-81
2024/02/12 04:57:37;;;;;;;;;;;6.20;99.90;;;;;;5000198;28;20031;-81
2024/02/12 05:00:03;;;;;;;27.17;9.75;;;6.30;99.90;;;;;;5000208;28;19906;-81
2024/02/12 05:02:31;;;;;;;20.85;8.68;;;6.30;99.90;;;;;;4999864;28;20058;-81
2024/02/12 05:04:58;;;;;;;24.20;9.32;;;6.30;99.90;;;;;;5000357;28;20022;-82
2024/02/12 05:07:27;;;;;;;31.23;10.68;;;6.50;99.90;;;;;;5000055;28;20517;-81
2024/02/12 05:09:53;;;;;;;32.03;9.43;;;8.30;99.90;;;;;;5000711;28;20486;-82
2024/02/12 05:12:18;;;;;;;24.88;8.95;;;6.50;99.90;;;;;;5000832;28;20019;-81
2024/02/12 05:14:44;;;;;;;26.75;8.93;;;8.40;99.90;;;;;;4999788;28;20090;-81
2024/02/12 05:17:11;;;;;;;30.05;9.63;;;6.60;99.90;;;;;;4999772;28;20070;-81
2024/02/12 05:22:33;;;;;;;32.42;10.63;;;6.70;99.90;;;;;;5001241;28;20017;-81
2024/02/12 05:24:59;;;;;;;31.48;9.25;;;6.60;99.90;;;;;;4999088;28;20029;-81
2024/02/12 05:27:25;;;;;;;28.50;10.13;;;6.60;99.90;;;;;;4998985;28;20023;-81
2024/02/12 05:29:51;;;;;;;22.98;8.82;;;6.70;99.90;;;;;;4999547;28;20092;-81
2024/02/12 05:32:19;;;;;;;35.13;10.88;;;6.70;99.90;;;;;;4999293;28;20086;-81
2024/02/12 05:34:48;;;;;;;27.60;10.25;;;6.70;99.90;;;;;;4999636;28;20050;-81
2024/02/12 05:37:15;;;;;;;31.10;9.90;;;6.70;99.90;;;;;;4998732;28;20054;-80
2024/02/12 05:39:41;;;;;;;25.55;9.10;;;6.70;99.90;;;;;;4999181;28;20030;-81
2024/02/12 05:42:07;;;;;;;34.47;10.48;;;8.80;99.90;;;;;;4997904;28;20026;-81
2024/02/12 05:44:34;;;;;;;31.25;9.27;;;;;;;;;;4999396;28;20025;-81
2024/02/12 05:47:00;;;;;;;30.50;8.98;;;;;;;;;;4998250;28;20022;-81
2024/02/12 05:49:26;;;;;;;28.17;9.70;;;6.80;99.90;;;;;;4998634;28;20503;-81
2024/02/12 05:51:55;;;;;;;29.00;8.93;;;6.80;99.90;;;;;;4999605;28;20022;-81
2024/02/12 05:54:21;;;;;;;25.70;9.27;;;6.90;99.90;;;;;;4998146;28;20037;-82
2024/02/12 05:56:47;;;;;;;26.10;8.73;;;6.90;99.90;;;;;;4999883;28;20030;-81
2024/02/12 05:59:13;;;;;;;28.98;10.05;;;6.90;99.90;;;;;;4998469;28;20487;-81
2024/02/12 06:01:40;;;;;;;34.47;10.45;;;6.90;99.90;;;;;;4997556;28;20030;-81
2024/02/12 06:04:05;;;;;;;23.70;9.05;;;6.90;99.90;;;;;;4998494;28;20030;-82
2024/02/12 06:06:36;;;;;;;22.88;8.48;;;6.90;99.90;;;;;;4999752;28;20030;-82
2024/02/12 06:09:01;;;;;;;25.95;9.23;;;6.90;99.90;;;;;;4998126;28;20085;-81
2024/02/12 06:11:27;;;;;;;24.85;8.98;;;6.90;99.90;;;;;;4998471;28;20066;-81
2024/02/12 06:13:52;;;;;;;25.55;8.63;;;6.90;99.90;;;;;;4997754;28;20038;-81
2024/02/12 06:16:18;;;;;;;30.65;9.18;;;6.90;99.90;;;;;;5000471;28;20026;-82
2024/02/12 06:18:44;;;;;;;35.88;10.00;;;10.00;99.90;;;;;;4998063;28;20034;-81
2024/02/12 06:21:09;;;;;;;23.30;8.65;;;7.60;99.90;;;;;;4997295;28;20549;-79
2024/02/12 06:23:37;;;;;;;31.35;9.70;;;6.70;99.90;;;;;;4997018;28;20022;-81
2024/02/12 06:26:02;;;;;;;29.65;8.43;;;6.70;99.90;;;;;;4997675;28;20025;-80
2024/02/12 06:28:28;;;;;;;22.92;8.25;;;6.70;99.90;;;;;;4999308;28;20478;-80
2024/02/12 06:30:53;;;;;;;26.42;8.38;;;8.90;99.90;;;;;;4997462;28;20026;-80
2024/02/12 06:33:19;;;;;;;21.10;8.00;;;6.70;99.90;;;;;;4998148;28;20026;-80
2024/02/12 06:35:45;;;;;;;27.60;8.38;;;6.70;99.90;;;;;;4999672;28;20479;-80
2024/02/12 06:38:10;;;;;;;27.92;9.13;;;6.70;99.90;;;;;;4997340;28;20505;-81
2024/02/12 06:40:36;;;;;;;24.05;8.25;;;6.80;99.90;;;;;;4996902;28;20069;-81
2024/02/12 06:43:04;;;;;;;24.83;7.90;;;6.80;99.90;;;;;;4998144;28;20046;-80
2024/02/12 06:45:33;;;;;;;23.13;8.65;;;6.80;99.90;;;;;;4998591;28;20018;-81
2024/02/12 06:47:59;;;;;;;22.83;7.80;;;6.80;99.90;;;;;;4998455;28;20053;-81
2024/02/12 06:50:24;;;;;;;26.48;8.60;;;6.80;99.90;;;;;;4998837;28;20015;-81
2024/02/12 06:52:50;;;;;;;26.88;8.02;;;6.70;99.90;;;;;;4997801;28;20029;-81
2024/02/12 06:55:16;;;;;;;26.95;7.68;;;6.70;99.90;;;;;;4999974;28;20049;-81
2024/02/12 06:57:48;;;;;;;22.00;7.63;;;6.50;99.90;;;;;;5001169;28;20050;-81
2024/02/12 07:00:17;;;;;;;27.77;8.30;;;6.60;99.90;;;;;;5002667;28;20042;-81
2024/02/12 07:02:46;;;;;;;25.95;7.65;;;6.50;99.90;;;;;;5002748;28;20409;-81
2024/02/12 07:05:15;;;;;;;21.73;7.45;;;6.50;99.90;;;;;;5001231;28;20629;-81
2024/02/12 07:07:40;;;;;;;21.52;7.50;;;6.40;99.90;;;;;;5001207;28;20033;-81
2024/02/12 07:10:07;;;;;;;24.23;8.77;;;6.40;99.90;;;;;;5001713;28;20113;-81
2024/02/12 07:12:33;;;;;;;22.00;7.28;;;6.30;99.90;;;;;;5001647;28;20382;-82
2024/02/12 07:14:59;;;;;;;19.08;6.40;;;6.30;99.90;;;;;;5001276;28;20437;-81
2024/02/12 07:17:24;;;;;;;20.48;7.65;;;6.30;99.90;;;;;;5001373;28;20027;-81
2024/02/12 07:19:50;;;;;;;24.98;7.40;;;6.20;99.90;;;;;;5002067;28;20025;-81
2024/02/12 07:22:19;;;;;;;22.25;7.32;;;6.20;99.90;;;;;;5002164;28;20018;-81
2024/02/12 07:24:49;;;;;;;26.73;7.65;;;6.10;99.90;;;;;;5001667;28;20088;-82
2024/02/12 07:27:15;;;;;;;20.67;6.97;;;;;;;;;;5001952;28;20019;-80
2024/02/12 07:29:41;;;;;;;15.65;6.68;;;6.10;99.90;;;;;;5003168;28;20086;-81
2024/02/12 07:32:07;;;;;;;19.77;6.45;;;6.10;99.90;;;;;;5001549;28;20027;-81
2024/02/12 07:34:32;;;;;;;28.48;7.43;;;6.10;99.90;;;;;;5001656;28;20061;-80
2024/02/12 07:36:58;;;;;;;19.30;6.68;;;;;;;;;;5001639;28;20022;-81
2024/02/12 07:39:24;;;;;;;18.88;6.70;;;6.00;99.90;;;;;;5002466;28;20031;-81
2024/02/12 07:41:51;;;;;;;21.77;6.93;;;;;;;;;;5001544;28;20029;-82
2024/02/12 07:44:17;;;;;;;19.25;6.25;;;;;;;;;;5003321;28;20392;-81
2024/02/12 07:46:43;;;;;;;15.95;5.60;;;6.00;99.90;;;;;;5000939;28;20034;-82
2024/02/12 07:49:10;;;;;;;15.95;5.72;;;6.10;99.90;;;;;;5001162;28;20394;-81
2024/02/12 07:51:39;;;;;;;18.75;5.10;;;6.10;99.90;;;;;;5001486;28;20030;-80
2024/02/12 07:54:05;;;;;;;21.75;5.30;;;6.10;99.90;;;;;;5000654;28;20088;-81
2024/02/12 07:56:30;;;;;;;11.30;4.38;;;6.20;99.90;;;;;;5001143;28;20116;-81
2024/02/12 07:58:56;;;;;;;18.33;6.18;;;6.30;99.90;;;;;;5001223;28;20022;-82
2024/02/12 08:01:21;;;;;;;16.90;5.85;;;6.30;99.90;;;;;;5000973;28;20029;-81
2024/02/12 08:03:48;;;;;;;15.80;5.03;;;6.40;99.90;;;;;;5002283;28;20077;-82
2024/02/12 08:06:15;;;;;;;16.70;6.03;;;6.60;99.90;;;;;;5000567;28;20018;-81
2024/02/12 08:08:41;;;;;;;14.48;5.38;;;7.60;99.90;;;;;;5002939;28;20049;-82
2024/02/12 08:11:06;;;;;;;11.35;4.60;;;6.80;99.90;;;;;;5000819;28;20030;-81
2024/02/12 08:13:32;;;;;;;16.00;4.43;;;8.30;99.90;;;;;;5000404;28;20464;-81
2024/02/12 08:15:58;;;;;;;13.15;5.05;;;7.00;99.90;;;;;;5001584;28;20018;-81
2024/02/12 08:18:24;;;;;;;13.50;4.65;;;7.50;99.90;;;;;;5000859;28;20023;-81
2024/02/12 08:20:49;;;;;;;12.25;5.15;;;7.10;99.90;;;;;;5000353;28;20019;-82
2024/02/12 08:23:16;;;;;;;13.07;4.93;;;;;;;;;;5001194;28;20062;-82
2024/02/12 08:25:41;;;;;;;16.60;5.97;;;7.10;99.90;;;;;;5000932;28;20062;-81
2024/02/12 08:28:07;;;;;;;16.27;5.57;;;7.10;99.90;;;;;;4999988;28;20394;-82
2024/02/12 08:30:33;;;;;;;18.70;6.30;;;7.10;99.90;;;;;;5000235;28;20072;-80
2024/02/12 08:32:59;;;;;;;15.43;4.60;;;;;;;;;;4999885;28;20486;-81
2024/02/12 08:35:25;;;;;;;12.10;4.70;;;7.20;99.90;;;;;;5000077;28;20035;-82
2024/02/12 08:37:50;;;;;;;15.40;5.85;;;7.30;99.90;;;;;;5001907;28;20390;-81
2024/02/12 08:40:17;;;;;;;13.23;5.70;;;7.40;99.90;;;;;;5001481;28;20026;-81
2024/02/12 08:42:47;;;;;;;13.43;5.18;;;7.50;99.90;;;;;;5001932;28;20022;-81
2024/02/12 08:45:13;;;;;;;16.08;5.07;;;8.90;99.90;;;;;;5000315;28;20026;-81
2024/02/12 08:47:39;;;;;;;14.20;4.82;;;;;;;;;;5000526;28;20478;-81
2024/02/12 08:50:06;;;;;;;15.00;5.30;;;7.80;99.90;;;;;;5002355;28;20026;-81
2024/02/12 08:52:32;;;;;;;13.82;5.15;;;7.90;99.90;;;;;;5000542;28;20031;-82
2024/02/12 08:54:59;;;;;;;15.48;5.07;;;8.00;99.90;;;;;;5001094;28;20023;-82
2024/02/12 08:57:26;;;;;;;16.15;5.93;;;8.00;99.90;;;;;;5001347;28;20089;-83
2024/02/12 08:59:52;;;;;;;16.90;5.22;;;8.00;99.90;;;;;;5000433;28;20022;-83
2024/02/12 09:02:18;;;;;;;15.57;5.60;;;7.90;99.90;;;;;;5000976;28;20037;-84
2024/02/12 09:04:44;;;;;;;13.10;5.93;;;;;;;;;;5000376;28;20019;-81
2024/02/12 09:07:11;;;;;;;15.15;5.07;;;;;;;;;;5000669;28;20049;-82
2024/02/12 09:09:37;;;;;;;26.17;5.82;;;7.90;99.90;;;;;;5001035;28;20028;-82
2024/02/12 09:12:03;;;;;;;15.38;5.63;;;;;;;;;;5001775;28;20077;-81
2024/02/12 09:14:29;;;;;;;15.77;5.47;;;7.90;99.90;;;;;;4999393;28;20034;-81
2024/02/12 09:16:55;;;;;;;18.00;7.35;;;7.90;99.90;;;;;;5000159;28;20018;-81
2024/02/12 09:19:23;;;;;;;20.58;6.22;;;8.00;99.90;;;;;;4998717;28;20027;-82
2024/02/12 09:21:49;;;;;;;;;;;7.90;99.90;;;;;;5000022;28;20029;-81
2024/02/12 09:24:16;;;;;;;16.73;5.18;;;8.00;99.90;;;;;;5000250;28;19906;-81
2024/02/12 09:26:41;;;;;;;17.73;5.25;;;7.90;99.90;;;;;;5000870;28;20487;-79
2024/02/12 09:29:07;;;;;;;26.38;6.53;;;7.90;99.90;;;;;;5000340;28;20156;-82
2024/02/12 09:31:33;;;;;;;18.70;6.60;;;8.10;99.90;;;;;;5000502;28;20379;-81
2024/02/12 09:34:02;;;;;;;13.98;5.38;;;;;;;;;;4999715;28;20079;-83
2024/02/12 09:36:32;;;;;;;16.30;4.95;;;8.30;99.90;;;;;;4999568;28;20076;-82
2024/02/12 09:38:58;;;;;;;22.33;5.97;;;8.30;99.90;;;;;;4998293;28;20089;-83
2024/02/12 09:41:28;;;;;;;14.15;5.07;;;8.80;99.90;;;;;;4998264;28;20478;-83
2024/02/12 09:44:01;;;;;;;15.57;5.70;;;8.50;99.90;;;;;;4996839;28;20398;-81
2024/02/12 09:46:29;;;;;;;15.02;5.63;;;8.60;99.90;;;;;;4996859;28;20026;-82
2024/02/12 09:48:57;;;;;;;15.68;7.25;;;8.60;99.90;;;;;;4998218;28;20118;-83
2024/02/12 09:51:24;;;;;;;21.48;7.03;;;8.60;99.90;;;;;;4998401;28;20030;-82
2024/02/12 09:53:55;;;;;;;19.58;7.07;;;8.80;99.90;;;;;;4999609;28;20030;-82
2024/02/12 09:56:22;;;;;;;16.95;7.75;;;;;;;;;;4999412;28;20029;-83
2024/02/12 09:58:48;;;;;;;15.98;7.07;;;;;;;;;;4997901;28;20129;-82
2024/02/12 10:01:16;;;;;;;22.38;7.65;;;8.90;99.90;;;;;;4999465;28;20390;-82
2024/02/12 10:03:43;;;;;;;19.38;7.55;;;8.90;99.90;;;;;;4997677;28;20030;-82
2024/02/12 10:06:12;;;;;;;20.42;7.80;;;9.10;99.90;;;;;;4998223;28;20036;-82
2024/02/12 10:08:38;;;;;;;36.95;9.25;;;9.20;99.90;;;;;;4997380;28;20371;-82
2024/02/12 10:11:06;;;;;;;18.73;8.02;;;9.10;99.90;;;;;;4998553;28;20030;-81
2024/02/12 10:13:33;;;;;;;17.58;6.10;;;9.20;99.90;;;;;;4998115;28;20034;-81
2024/02/12 10:15:59;;;;;;;19.80;5.40;;;9.20;99.90;;;;;;4998180;28;20025;-83
2024/02/12 10:18:25;;;;;;;13.48;4.50;;;9.00;99.90;;;;;;4999240;28;20097;-82
2024/02/12 10:20:51;;;;;;;11.65;4.70;;;9.30;99.90;;;;;;4997666;28;20069;-80
2024/02/12 10:23:19;;;;;;;8.75;3.00;;;9.40;99.90;;;;;;4999682;28;20106;-83
2024/02/12 10:25:50;;;;;;;12.05;3.08;;;9.50;99.90;;;;;;4997861;28;20046;-82
2024/02/12 10:28:17;;;;;;;4.95;2.17;;;9.50;99.90;;;;;;4998754;28;20030;-80
2024/02/12 10:30:44;;;;;;;10.90;3.13;;;9.60;99.90;;;;;;5001096;28;20053;-83
2024/02/12 10:33:10;;;;;;;7.13;2.60;;;9.60;99.90;;;;;;5002556;28;20110;-83
2024/02/12 10:35:43;;;;;;;7.40;2.78;;;9.60;99.90;;;;;;5002060;28;20022;-82
2024/02/12 10:38:12;;;;;;;10.02;2.75;;;9.60;99.90;;;;;;5001526;28;20029;-80
2024/02/12 10:40:51;;;;;;;;;;;9.60;99.90;;;;;;5003685;28;20517;-80
2024/02/12 10:43:22;;;;;;;11.90;3.80;;;9.70;99.90;;;;;;5001764;28;20065;-80
2024/02/12 10:45:48;;;;;;;8.82;3.45;;;9.80;99.90;;;;;;5001376;28;20034;-83
2024/02/12 10:48:17;;;;;;;7.50;2.45;;;9.90;99.90;;;;;;5001006;28;20023;-82
2024/02/12 10:50:47;;;;;;;8.73;2.60;;;9.90;99.90;;;;;;5002304;28;20064;-82
2024/02/12 10:53:17;;;;;;;5.18;2.05;;;10.00;99.90;;;;;;5001013;28;20054;-82
2024/02/12 10:55:43;;;;;;;6.25;2.35;;;10.10;99.90;;;;;;5001411;28;20019;-82
2024/02/12 10:58:10;;;;;;;5.82;1.85;;;10.00;99.90;;;;;;5002646;28;20022;-82
2024/02/12 11:00:40;;;;;;;13.20;2.00;;;10.00;99.90;;;;;;5003811;28;20375;-82
2024/02/12 11:03:06;;;;;;;4.38;1.65;;;10.00;99.90;;;;;;5003323;28;20061;-83
2024/02/12 11:05:43;;;;;;;4.75;1.02;;;9.80;99.90;;;;;;5003627;28;20488;-82
2024/02/12 11:08:14;;;;;;;6.40;1.63;;;9.80;99.90;;;;;;5002118;28;20034;-82
2024/02/12 11:10:50;;;;;;;7.35;2.28;;;9.80;99.90;;;;;;5002107;28;20022;-82
2024/02/12 11:13:20;;;;;;;6.97;0.75;;;;;;;;;;5000782;28;20023;-80
2024/02/12 11:15:50;;;;;;;6.10;1.15;;;9.90;99.90;;;;;;5000366;28;20022;-77
2024/02/12 11:18:16;;;;;;;5.72;0.90;;;10.40;99.90;;;;;;4995946;28;20548;-78
2024/02/12 11:20:59;;;;;;;5.68;0.80;;;10.40;99.90;;;;;;4998226;28;20102;-78
2024/02/12 11:23:26;;;;;;;12.30;1.38;;;10.30;99.90;;;;;;4997925;28;20097;-78
2024/02/12 11:25:56;;;;;;;6.07;1.33;;;10.40;99.90;;;;;;4995900;28;20143;-78
2024/02/12 11:28:30;;;;;;;3.28;0.82;;;10.50;99.90;;;;;;4996848;28;20097;-78
2024/02/12 11:30:57;;;;;;;5.00;0.50;;;10.50;99.90;;;;;;4995817;28;20026;-78
2024/02/12 11:33:26;;;;;;;4.07;0.50;;;10.80;99.90;;;;;;4997242;28;20037;-77
2024/02/12 11:36:09;;;;;;;4.78;0.38;;;10.90;99.90;;;;;;4995353;28;20023;-78
2024/02/12 11:38:52;;;;;;;5.35;0.17;;;10.90;99.90;;;;;;4995867;28;20030;-77
2024/02/12 11:41:18;;;;;;;2.00;0.00;;;11.30;99.90;;;;;;4997026;28;20022;-78
2024/02/12 11:43:46;;;;;;;2.20;0.10;;;11.30;99.90;;;;;;4997079;28;20088;-78
2024/02/12 11:46:15;;;;;;;3.95;0.40;;;11.20;99.90;;;;;;4996101;28;20535;-77
2024/02/12 11:48:42;;;;;;;5.20;0.20;;;11.20;99.90;;;;;;4997389;28;20465;-78
2024/02/12 11:51:09;;;;;;;6.90;0.80;;;11.10;99.90;;;;;;4997314;28;20101;-75
2024/02/12 11:53:41;;;;;;;3.13;0.43;;;11.10;99.90;;;;;;4994879;28;20022;-76
2024/02/12 11:56:07;;;;;;;2.40;0.20;;;11.10;99.90;;;;;;4996613;28;20474;-76
2024/02/12 11:58:33;;;;;;;3.28;0.10;;;11.00;99.90;;;;;;4994737;28;20076;-76
2024/02/12 12:00:58;;;;;;;1.60;0.00;;;10.90;99.90;;;;;;4995039;28;20022;-76
2024/02/12 12:03:25;;;;;;;2.53;0.32;;;10.90;99.90;;;;;;4996147;28;20038;-76
2024/02/12 12:05:52;;;;;;;0.80;0.17;;;10.80;99.90;;;;;;4996571;28;20076;-77
2024/02/12 12:08:24;;;;;;;4.50;0.00;;;10.80;99.90;;;;;;4996264;28;20076;-76
2024/02/12 12:10:50;;;;;;;3.45;0.03;;;10.60;99.90;;;;;;4994923;28;20037;-76
2024/02/12 12:13:20;;;;;;;9.20;0.10;;;10.40;99.90;;;;;;4996493;28;20026;-76
2024/02/12 12:15:46;;;;;;;4.95;0.45;;;11.00;99.90;;;;;;4996684;28;20022;-76
2024/02/12 12:18:12;;;;;;;3.00;0.00;;;10.20;99.90;;;;;;4995552;28;20085;-77
2024/02/12 12:20:38;;;;;;;2.75;0.10;;;10.10;99.90;;;;;;4996675;28;20033;-76
2024/02/12 12:23:04;;;;;;;2.75;0.05;;;10.10;99.90;;;;;;4996747;28;20023;-76
2024/02/12 12:25:30;;;;;;;4.28;0.60;;;10.10;99.90;;;;;;4996249;28;20029;-76
2024/02/12 12:27:58;;;;;;;3.17;0.25;;;10.10;99.90;;;;;;4994473;28;20482;-76
2024/02/12 12:30:24;;;;;;;4.60;0.10;;;10.10;99.90;;;;;;4996019;28;20434;-77
2024/02/12 12:32:51;;;;;;;2.10;0.00;;;10.10;99.90;;;;;;4995903;28;20023;-76
2024/02/12 12:35:17;;;;;;;5.07;0.30;;;10.10;99.90;;;;;;4996360;28;20025;-76
2024/02/12 12:37:45;;;;;;;2.92;0.30;;;10.10;99.90;;;;;;4995062;28;20027;-76
2024/02/12 12:40:18;;;;;;;2.83;0.30;;;10.10;99.90;;;;;;4995356;28;20015;-76
2024/02/12 12:42:44;;;;;;;2.38;0.00;;;10.00;99.90;;;;;;4994197;28;20092;-76
2024/02/12 12:45:11;;;;;;;2.97;0.43;;;9.90;99.90;;;;;;4994731;28;20386;-76
2024/02/12 12:47:39;;;;;;;1.50;0.10;;;9.80;99.90;;;;;;4995769;28;20022;-76
2024/02/12 12:50:08;;;;;;;1.50;0.40;;;9.90;99.90;;;;;;4994356;28;20092;-76
2024/02/12 12:52:34;;;;;;;;;;;9.70;99.90;;;;;;4995908;28;20050;-76
2024/02/12 12:55:00;;;;;;;4.38;0.05;;;9.80;99.90;;;;;;4996549;28;19909;-76
2024/02/12 12:57:25;;;;;;;5.88;0.32;;;9.80;99.90;;;;;;4995504;28;20031;-76
2024/02/12 12:59:52;;;;;;;1.70;0.00;;;9.80;99.90;;;;;;4993788;28;20030;-76
2024/02/12 13:02:20;;;;;;;4.82;0.00;;;9.80;99.90;;;;;;4994826;28;20550;-76
2024/02/12 13:04:46;;;;;;;2.83;0.10;;;9.80;99.90;;;;;;4993475;28;20022;-75
2024/02/12 13:07:12;;;;;;;4.65;0.38;;;9.80;99.90;;;;;;4994318;28;20502;-75
2024/02/12 13:09:39;;;;;;;5.85;0.73;;;10.10;99.90;;;;;;4993583;28;20023;-77